Terminal Aerodrome Forecast
Issued by NWS Portland, ME

Home | Current Version | Previous Version | Text Only | Print | Product List | Glossary On
Versions: 1 2 3 4 5 6 7 8 9 10 11 12 13 14 15 16 17 18 19 20 21
000
FTUS41 KGYX 210708 RRB
TAFCON
TAF
KCON 210708Z 2107/2206 VRB03KT P6SM SCT200
      TEMPO 2108/2111 3SM BR BKN004
     FM211200 12005KT P6SM VCSH BKN040=

USA.gov is the U.S. government's official web portal to all federal, state and local government web resources and services.